首页
METAR-TAF:

METAR-TAF

机场 :

切爾諾夫策國際機場

切爾諾夫策, 乌克兰

纬度: 48-15-36N, 经度: 025-58-54E, 海拔: 252米

当前天气观测

该预报发布于4小时和26分钟前的20:00 UTC
静风
温度 -1°C
湿度 86%
气压 1013 hPa
能見度: 3400
轻雾

METAR: UKLN 072000Z 00000MPS 3400 BR NSC M01/M03 Q1013 R15/09//70 TEMPO 1000 BR BKN006

时间: 02:26 (00:26 UTC)

预报

该预报发布于7小时和24分钟前的17:02 UTC
预报有效从07日的 18点(UTC)到 08日的 03点(UTC)
风速2节,风向多变
能見度: 2100
散云层高于3300英尺
轻雾
短暂存在
从 07日的 18点(UTC)到 08日的 03点(UTC)
能見度: 1000
多云层高于600英尺
轻雾

TAF: UKLN 071702Z 0718/0803 VRB01MPS 2100 BR SCT033 TXM03/0718Z TNM05/0803Z TEMPO 0718/0803 1000 BR BKN006

超过4000个机场的气象观测和天气预报(METAR&TAF报告)。

可查询的气象台以黄色和红色小点在地图上表示。

将鼠标移到小点上方,可查看气象台名称。

然后点击查看天气观测和预报。

如需切换地图:点击带黑十字的绿色按钮放大地图;点击带横线的绿色按钮缩小地图;或者点击绿色箭头查看邻近地区的地图。


METAR-TAF: